Time;durP1;ratioP1;P1;durP2;ratioP2;P2;SDS_P1;SDS_P2;PMS_P1;PMS_P2;Temp;Humidity;BMP_temperature;BMP_pressure;BME280_temperature;BME280_humidity;BME280_pressure;Samples;Min_cycle;Max_cycle;Signal;HPM_P1;HPM_P2
2023/10/02 00:01:52;;;;;;;29.23;15.20;;;17.00;82.80;;;;;;4980103;28;20161;-67
2023/10/02 00:04:24;;;;;;;27.63;16.02;;;17.00;82.80;;;;;;4991551;28;20050;-67
2023/10/02 00:07:08;;;;;;;33.55;15.90;;;17.00;82.70;;;;;;4991942;28;20053;-66
2023/10/02 00:09:42;;;;;;;33.03;16.17;;;17.00;82.70;;;;;;4991463;28;20125;-67
2023/10/02 00:12:14;;;;;;;30.33;16.10;;;17.00;82.70;;;;;;4990586;28;20050;-67
2023/10/02 00:14:41;;;;;;;34.15;16.75;;;16.90;82.70;;;;;;4991493;28;20426;-66
2023/10/02 00:17:13;;;;;;;32.65;16.58;;;16.90;82.80;;;;;;4991393;28;20355;-67
2023/10/02 00:19:40;;;;;;;32.83;15.85;;;16.90;82.70;;;;;;4979600;28;20050;-67
2023/10/02 00:22:34;;;;;;;30.38;15.02;;;16.90;82.80;;;;;;5010251;28;20310;-68
2023/10/02 00:25:00;;;;;;;30.65;16.73;;;16.90;82.90;;;;;;4995975;28;20058;-67
2023/10/02 00:27:28;;;;;;;33.67;16.98;;;16.90;82.90;;;;;;4990985;28;20046;-67
2023/10/02 00:29:58;;;;;;;31.23;16.38;;;16.80;82.90;;;;;;4991120;28;20409;-67
2023/10/02 00:32:31;;;;;;;29.85;16.52;;;16.80;83.00;;;;;;4990831;28;20050;-67
2023/10/02 00:35:00;;;;;;;29.83;16.13;;;16.80;83.00;;;;;;4990335;28;20501;-67
2023/10/02 00:40:21;;;;;;;32.30;16.83;;;16.70;83.20;;;;;;4990323;28;20065;-67
2023/10/02 00:42:49;;;;;;;27.30;15.65;;;16.70;83.30;;;;;;5001611;28;20125;-67
2023/10/02 00:45:17;;;;;;;28.55;16.42;;;16.70;83.30;;;;;;5010210;28;20042;-67
2023/10/02 00:47:45;;;;;;;31.77;16.20;;;16.70;83.30;;;;;;5011119;28;20103;-67
2023/10/02 00:50:16;;;;;;;32.55;16.38;;;16.60;83.40;;;;;;5001405;28;20497;-67
2023/10/02 00:52:47;;;;;;;30.60;17.10;;;16.70;83.40;;;;;;4990297;28;20109;-67
2023/10/02 00:55:14;;;;;;;33.63;16.88;;;16.60;83.40;;;;;;4991214;28;20054;-67
2023/10/02 00:57:41;;;;;;;35.53;17.23;;;16.60;83.40;;;;;;4973563;28;20046;-67
2023/10/02 01:00:21;;;;;;;33.97;18.38;;;16.60;83.50;;;;;;4973127;28;20481;-67
2023/10/02 01:02:51;;;;;;;33.28;17.02;;;16.60;83.50;;;;;;4990050;28;20140;-67
2023/10/02 01:05:30;;;;;;;30.27;16.80;;;16.50;83.40;;;;;;5000700;28;20050;-67
2023/10/02 01:07:56;;;;;;;30.95;17.17;;;16.50;83.50;;;;;;5004783;28;20301;-67
2023/10/02 01:10:23;;;;;;;33.28;17.33;;;16.50;83.50;;;;;;4989537;28;20061;-66
2023/10/02 01:12:51;;;;;;;36.03;17.30;;;16.40;83.50;;;;;;4996139;28;20408;-67
2023/10/02 01:15:20;;;;;;;31.17;18.20;;;16.40;83.50;;;;;;5009196;28;20046;-66
2023/10/02 01:17:48;;;;;;;31.80;17.73;;;16.40;83.50;;;;;;4992898;28;20050;-67
2023/10/02 01:20:21;;;;;;;35.05;18.15;;;16.30;83.50;;;;;;4973148;28;20077;-66
2023/10/02 01:22:52;;;;;;;35.05;18.60;;;16.30;83.50;;;;;;4989610;28;20061;-65
2023/10/02 01:25:23;;;;;;;;;;;16.30;83.60;;;;;;4990564;28;20058;-67
2023/10/02 01:27:51;;;;;;;33.60;19.00;;;16.20;83.70;;;;;;4966458;28;19938;-67
2023/10/02 01:30:24;;;;;;;36.40;18.98;;;16.20;83.70;;;;;;4997495;28;20861;-67
2023/10/02 01:33:12;;;;;;;32.42;18.70;;;16.20;83.50;;;;;;5005385;28;20129;-67
2023/10/02 01:35:47;;;;;;;36.25;18.85;;;16.20;83.60;;;;;;5007400;28;20101;-66
2023/10/02 01:38:26;;;;;;;37.80;19.02;;;16.20;83.60;;;;;;5009683;28;20054;-67
2023/10/02 01:41:03;;;;;;;34.80;19.25;;;16.10;83.50;;;;;;4985151;28;20058;-67
2023/10/02 01:43:40;;;;;;;37.03;19.10;;;16.10;83.60;;;;;;4990203;28;20050;-67
2023/10/02 01:46:07;;;;;;;32.28;19.25;;;16.10;83.60;;;;;;4989777;28;20043;-67
2023/10/02 01:48:37;;;;;;;36.05;19.63;;;16.10;83.50;;;;;;4992220;28;20046;-67
2023/10/02 01:51:15;;;;;;;32.25;18.15;;;16.10;83.60;;;;;;5006015;28;20124;-67
2023/10/02 01:53:42;;;;;;;35.53;18.77;;;16.10;83.50;;;;;;4981319;28;20050;-66
2023/10/02 01:56:12;;;;;;;37.50;20.10;;;16.10;83.60;;;;;;4993175;28;20073;-66
2023/10/02 01:58:41;;;;;;;37.25;19.33;;;16.10;83.60;;;;;;4993358;28;20053;-67
2023/10/02 02:01:09;;;;;;;34.95;20.00;;;16.00;83.60;;;;;;4996393;28;20082;-65
2023/10/02 02:03:39;;;;;;;38.03;20.42;;;16.10;83.50;;;;;;5013539;28;20061;-67
2023/10/02 02:06:11;;;;;;;39.30;21.33;;;16.10;83.50;;;;;;4999172;28;20050;-67
2023/10/02 02:08:43;;;;;;;35.33;20.25;;;16.00;83.60;;;;;;5004006;28;20084;-66
2023/10/02 02:11:18;;;;;;;40.00;21.17;;;16.00;83.50;;;;;;5013130;28;20093;-67
2023/10/02 02:13:48;;;;;;;40.42;21.60;;;16.00;83.50;;;;;;5013383;28;20501;-65
2023/10/02 02:16:15;;;;;;;39.22;20.70;;;16.00;83.40;;;;;;5006564;28;20042;-67
2023/10/02 02:18:42;;;;;;;42.08;21.02;;;16.00;83.50;;;;;;4993297;28;20493;-67
2023/10/02 02:21:14;;;;;;;42.17;22.10;;;16.00;83.40;;;;;;4992820;28;20137;-67
2023/10/02 02:23:39;;;;;;;39.97;22.27;;;16.00;83.50;;;;;;4993909;28;20531;-67
2023/10/02 02:26:08;;;;;;;40.30;21.75;;;16.00;83.50;;;;;;5012336;28;20050;-67
2023/10/02 02:28:43;;;;;;;42.22;22.92;;;16.00;83.50;;;;;;4999613;28;20046;-67
2023/10/02 02:31:30;;;;;;;39.13;22.40;;;16.00;83.60;;;;;;4992995;28;20050;-67
2023/10/02 02:33:57;;;;;;;37.70;21.88;;;15.90;83.50;;;;;;4997249;28;20061;-67
2023/10/02 02:36:28;;;;;;;43.42;23.92;;;15.80;83.50;;;;;;5012928;28;20405;-67
2023/10/02 02:39:15;;;;;;;41.35;23.05;;;15.80;83.50;;;;;;5012094;28;20057;-67
2023/10/02 02:44:40;;;;;;;44.15;24.33;;;15.80;83.60;;;;;;4993169;28;20417;-67
2023/10/02 02:47:08;;;;;;;43.80;24.85;;;15.80;83.60;;;;;;4994379;28;20424;-67
2023/10/02 02:49:51;;;;;;;45.22;24.00;;;15.80;83.50;;;;;;4999229;28;20053;-67
2023/10/02 02:52:42;;;;;;;47.30;25.25;;;15.80;83.50;;;;;;4982618;28;20232;-67
2023/10/02 02:55:22;;;;;;;42.55;24.10;;;15.80;83.40;;;;;;4974344;28;20071;-65
2023/10/02 02:57:47;;;;;;;47.10;25.30;;;15.70;83.50;;;;;;4992560;28;20568;-67
2023/10/02 03:00:31;;;;;;;42.90;25.02;;;15.70;83.40;;;;;;4968205;28;20047;-67
2023/10/02 03:03:00;;;;;;;45.28;25.25;;;15.70;83.60;;;;;;4984562;28;20077;-67
2023/10/02 03:05:38;;;;;;;43.20;25.83;;;15.70;83.50;;;;;;4982250;28;20055;-67
2023/10/02 03:08:05;;;;;;;52.10;24.85;;;15.60;83.60;;;;;;4984106;28;20054;-68
2023/10/02 03:10:37;;;;;;;43.53;25.73;;;15.60;83.50;;;;;;4986143;28;20053;-66
2023/10/02 03:13:03;;;;;;;46.25;25.70;;;15.60;83.50;;;;;;4991012;28;20046;-67
2023/10/02 03:15:47;;;;;;;52.08;27.25;;;15.60;83.50;;;;;;4982201;28;20035;-67
2023/10/02 03:21:14;;;;;;;48.53;26.80;;;15.60;83.60;;;;;;4974089;28;20054;-67
2023/10/02 03:23:42;;;;;;;53.13;26.90;;;15.60;83.70;;;;;;4990276;28;20046;-67
2023/10/02 03:27:01;;;;;;;50.65;27.10;;;15.60;83.70;;;;;;4974034;28;20054;-67
2023/10/02 03:29:09;;;;;;;43.90;25.98;;;15.60;83.70;;;;;;4980688;28;20054;-65
2023/10/02 03:31:37;;;;;;;53.03;28.27;;;15.60;83.70;;;;;;4992145;28;20050;-67
2023/10/02 03:36:59;;;;;;;50.22;28.08;;;15.60;83.80;;;;;;5011517;28;20060;-65
2023/10/02 03:42:22;;;;;;;48.17;28.15;;;15.60;83.80;;;;;;4993093;28;20105;-67
2023/10/02 03:44:56;;;;;;;52.92;28.10;;;15.60;83.80;;;;;;4991683;28;20086;-67
2023/10/02 03:47:33;;;;;;;54.30;28.60;;;15.50;83.70;;;;;;4974414;28;20054;-67
2023/10/02 03:50:03;;;;;;;51.08;29.33;;;15.50;83.80;;;;;;4995455;28;20501;-67
2023/10/02 03:52:31;;;;;;;53.35;28.42;;;15.50;84.00;;;;;;5011662;28;20121;-67
2023/10/02 03:55:02;;;;;;;54.70;28.95;;;15.50;84.00;;;;;;5010405;28;20042;-67
2023/10/02 04:00:27;;;;;;;45.97;28.05;;;15.50;84.10;;;;;;4999979;28;20050;-67
2023/10/02 04:02:57;;;;;;;52.20;28.90;;;15.50;84.00;;;;;;5011479;28;20050;-67
2023/10/02 04:05:42;;;;;;;52.20;28.23;;;15.50;84.00;;;;;;5010261;28;20289;-67
2023/10/02 04:08:13;;;;;;;48.17;27.90;;;15.50;84.00;;;;;;5011074;28;20535;-68
2023/10/02 04:10:51;;;;;;;50.33;27.25;;;15.50;84.00;;;;;;5010647;28;20129;-67
2023/10/02 04:13:23;;;;;;;50.75;27.48;;;15.50;84.00;;;;;;5011402;28;20050;-67
2023/10/02 04:15:49;;;;;;;;;;;15.50;84.00;;;;;;4992504;28;20065;-67
2023/10/02 04:18:45;;;;;;;48.13;27.33;;;15.50;84.10;;;;;;4991938;28;19956;-67
2023/10/02 04:21:09;;;;;;;48.60;27.45;;;15.50;84.10;;;;;;4990818;28;20058;-67
2023/10/02 04:23:40;;;;;;;47.38;26.30;;;15.50;84.10;;;;;;4990882;28;20540;-67
2023/10/02 04:26:19;;;;;;;51.13;26.83;;;15.50;84.10;;;;;;4990621;28;20052;-67
2023/10/02 04:28:58;;;;;;;47.72;27.52;;;15.50;84.20;;;;;;4991276;28;20050;-67
2023/10/02 04:31:29;;;;;;;42.78;25.50;;;15.50;84.20;;;;;;5001017;28;20496;-67
2023/10/02 04:36:41;;;;;;;46.10;25.83;;;15.50;84.20;;;;;;4990489;28;20108;-65
2023/10/02 04:39:26;;;;;;;47.65;25.63;;;15.50;84.20;;;;;;4992783;28;20092;-67
2023/10/02 04:42:11;;;;;;;44.85;24.90;;;15.50;84.10;;;;;;4991313;28;20128;-67
2023/10/02 04:44:58;;;;;;;43.08;25.92;;;15.50;84.20;;;;;;4970577;28;20054;-67
2023/10/02 04:47:27;;;;;;;44.95;25.60;;;15.50;84.20;;;;;;4981011;28;20516;-67
2023/10/02 04:52:56;;;;;;;48.55;26.50;;;15.50;84.30;;;;;;4988410;28;20112;-67
2023/10/02 04:55:24;;;;;;;49.58;27.48;;;15.50;84.20;;;;;;4986077;28;20054;-67
2023/10/02 04:58:04;;;;;;;44.63;26.20;;;15.40;84.30;;;;;;4986551;28;20089;-67
2023/10/02 05:00:33;;;;;;;43.42;26.10;;;15.50;84.40;;;;;;4986665;28;20046;-67
2023/10/02 05:03:09;;;;;;;47.25;25.38;;;15.40;84.40;;;;;;4991813;28;20050;-67
2023/10/02 05:05:47;;;;;;;44.67;25.65;;;15.40;84.40;;;;;;4988828;28;20049;-66
2023/10/02 05:08:31;;;;;;;48.80;27.13;;;15.40;84.50;;;;;;4986592;28;20042;-67
2023/10/02 05:10:56;;;;;;;49.80;25.90;;;15.40;84.50;;;;;;4988107;28;20053;-66
2023/10/02 05:16:11;;;;;;;53.20;27.52;;;15.40;84.50;;;;;;4955663;28;20057;-67
2023/10/02 05:18:37;;;;;;;50.13;26.10;;;15.30;84.50;;;;;;4971847;28;20144;-67
2023/10/02 05:21:03;;;;;;;49.47;26.58;;;15.30;84.50;;;;;;4984700;28;20050;-67
2023/10/02 05:23:30;;;;;;;52.75;27.88;;;15.30;84.60;;;;;;4989853;28;20042;-67
2023/10/02 05:26:01;;;;;;;47.38;25.95;;;15.30;84.60;;;;;;4971658;28;20085;-67
2023/10/02 05:28:42;;;;;;;46.55;27.08;;;15.30;84.60;;;;;;4986550;28;20046;-67
2023/10/02 05:31:11;;;;;;;;;;;15.20;84.60;;;;;;4959418;28;20046;-67
2023/10/02 05:33:37;;;;;;;50.28;27.60;;;15.20;84.80;;;;;;4992812;28;20330;-66
2023/10/02 05:36:07;;;;;;;48.83;26.85;;;15.10;84.80;;;;;;4987588;28;20050;-67
2023/10/02 05:38:34;;;;;;;48.65;28.23;;;15.10;84.70;;;;;;4988117;28;20061;-67
2023/10/02 05:41:00;;;;;;;49.60;28.23;;;15.10;84.80;;;;;;4988883;28;20090;-67
2023/10/02 05:43:31;;;;;;;50.38;27.58;;;15.10;84.80;;;;;;4997819;28;20074;-66
2023/10/02 05:45:57;;;;;;;52.03;28.23;;;15.10;84.70;;;;;;4981274;28;20054;-68
2023/10/02 05:50:54;;;;;;;54.10;28.48;;;15.00;84.90;;;;;;4972538;28;20108;-68
2023/10/02 05:53:25;;;;;;;52.40;29.02;;;15.00;84.80;;;;;;4989753;28;20499;-67
2023/10/02 05:55:57;;;;;;;50.72;29.42;;;15.00;84.90;;;;;;4989554;28;20077;-67
2023/10/02 05:58:31;;;;;;;54.55;29.88;;;15.00;85.00;;;;;;4989899;28;20049;-67
2023/10/02 06:01:02;;;;;;;52.83;28.23;;;15.00;85.00;;;;;;4984693;28;20050;-67
2023/10/02 06:03:36;;;;;;;49.17;29.05;;;15.00;85.10;;;;;;4990060;28;20048;-67
2023/10/02 06:06:18;;;;;;;49.38;28.77;;;15.00;85.20;;;;;;5005532;28;20081;-63
2023/10/02 06:08:48;;;;;;;;;;;15.00;85.30;;;;;;4997734;28;20497;-66
2023/10/02 06:11:34;;;;;;;56.78;29.45;;;15.00;85.40;;;;;;4989915;28;20020;-66
2023/10/02 06:14:10;;;;;;;54.72;29.35;;;15.00;85.40;;;;;;4992736;28;20497;-66
2023/10/02 06:16:48;;;;;;;53.40;29.80;;;15.00;85.30;;;;;;5001848;28;20133;-66
2023/10/02 06:19:14;;;;;;;58.42;30.33;;;15.00;85.30;;;;;;4990136;28;20054;-66
2023/10/02 06:22:00;;;;;;;51.88;28.17;;;15.00;85.30;;;;;;4989302;28;20054;-66
2023/10/02 06:24:29;;;;;;;57.40;30.00;;;15.00;85.30;;;;;;4994326;28;20412;-67
2023/10/02 06:26:58;;;;;;;52.17;28.63;;;15.00;85.30;;;;;;5009028;28;20050;-66
2023/10/02 06:29:35;;;;;;;53.78;28.02;;;15.00;85.30;;;;;;4989541;28;20049;-66
2023/10/02 06:32:05;;;;;;;52.33;28.77;;;15.00;85.30;;;;;;4989406;28;20085;-67
2023/10/02 06:34:38;;;;;;;54.85;29.98;;;15.00;85.40;;;;;;4998702;28;20046;-67
2023/10/02 06:37:17;;;;;;;50.90;29.27;;;15.10;85.40;;;;;;5013021;28;20512;-67
2023/10/02 06:40:02;;;;;;;53.97;28.95;;;15.10;85.50;;;;;;5001055;28;20149;-66
2023/10/02 06:42:28;;;;;;;58.25;30.45;;;15.10;85.50;;;;;;4988849;28;20136;-69
2023/10/02 06:44:54;;;;;;;53.40;30.27;;;15.10;85.70;;;;;;4989978;28;20046;-66
2023/10/02 06:47:28;;;;;;;57.72;29.65;;;15.20;85.70;;;;;;4985006;28;20070;-66
2023/10/02 06:50:03;;;;;;;57.10;31.27;;;15.20;85.70;;;;;;4986085;28;20055;-66
2023/10/02 06:52:33;;;;;;;53.58;30.50;;;15.20;85.70;;;;;;4981095;28;20490;-66
2023/10/02 06:55:01;;;;;;;53.53;30.45;;;15.30;85.80;;;;;;4983897;28;20461;-67
2023/10/02 06:57:27;;;;;;;58.42;30.17;;;15.30;85.80;;;;;;4982720;28;20375;-68
2023/10/02 06:59:53;;;;;;;55.67;29.02;;;15.30;85.80;;;;;;4989573;28;20062;-67
2023/10/02 07:02:27;;;;;;;58.00;30.05;;;15.30;85.80;;;;;;4986021;28;20039;-66
2023/10/02 07:04:55;;;;;;;54.28;30.42;;;15.40;85.80;;;;;;4984510;28;20489;-67
2023/10/02 07:07:29;;;;;;;52.15;29.88;;;15.40;85.80;;;;;;4984985;28;20056;-66
2023/10/02 07:10:07;;;;;;;57.28;30.73;;;15.50;85.80;;;;;;4971678;28;20133;-67
2023/10/02 07:12:43;;;;;;;51.92;29.98;;;15.50;85.70;;;;;;5007744;28;20549;-66
2023/10/02 07:15:13;;;;;;;50.05;29.17;;;15.60;85.70;;;;;;4976809;28;20082;-67
2023/10/02 07:17:48;;;;;;;53.88;29.15;;;15.60;85.70;;;;;;4979143;28;20142;-64
2023/10/02 07:20:15;;;;;;;51.13;28.55;;;15.60;85.70;;;;;;4982304;28;20043;-65
2023/10/02 07:22:43;;;;;;;52.63;28.67;;;15.70;85.70;;;;;;4972900;28;20113;-66
2023/10/02 07:25:09;;;;;;;52.90;29.08;;;15.80;85.70;;;;;;4949549;28;20068;-66
2023/10/02 07:27:37;;;;;;;54.13;29.17;;;15.80;85.60;;;;;;4962373;28;20114;-62
2023/10/02 07:30:04;;;;;;;54.50;30.38;;;15.80;85.50;;;;;;4977978;28;20127;-66
2023/10/02 07:32:32;;;;;;;49.58;28.58;;;16.00;85.60;;;;;;4980155;28;20065;-67
2023/10/02 07:35:21;;;;;;;48.55;31.15;;;16.00;85.50;;;;;;4979979;28;20145;-67
2023/10/02 07:37:58;;;;;;;51.88;30.20;;;16.00;85.50;;;;;;4979565;28;20058;-63
2023/10/02 07:40:46;;;;;;;50.45;31.30;;;16.10;85.50;;;;;;4978940;28;20085;-66
2023/10/02 07:43:18;;;;;;;51.83;29.05;;;16.20;85.30;;;;;;4980120;28;20472;-66
2023/10/02 07:46:01;;;;;;;48.50;29.88;;;16.30;85.20;;;;;;4976662;28;20490;-65
2023/10/02 07:48:30;;;;;;;51.80;28.70;;;16.40;85.10;;;;;;4975661;28;20092;-66
2023/10/02 07:50:58;;;;;;;50.90;29.48;;;16.40;85.00;;;;;;4977945;28;20409;-67
2023/10/02 07:53:38;;;;;;;50.45;29.65;;;16.50;85.00;;;;;;4977369;28;20050;-66
2023/10/02 07:56:05;;;;;;;50.35;29.00;;;16.50;85.00;;;;;;4977752;28;20057;-65
2023/10/02 07:58:31;;;;;;;52.63;28.00;;;16.60;85.00;;;;;;4977117;28;20046;-64
2023/10/02 08:01:06;;;;;;;48.88;29.20;;;16.70;84.90;;;;;;4973916;28;20581;-67
2023/10/02 08:03:32;;;;;;;50.10;29.52;;;16.70;84.60;;;;;;4977171;28;20050;-63
2023/10/02 08:06:20;;;;;;;46.83;29.35;;;16.80;84.60;;;;;;4977286;28;20053;-66
2023/10/02 08:08:47;;;;;;;52.63;29.00;;;16.80;84.30;;;;;;4960468;28;20512;-66
2023/10/02 08:11:13;;;;;;;52.85;30.00;;;16.90;84.30;;;;;;4977126;28;20499;-64
2023/10/02 08:13:48;;;;;;;53.30;29.63;;;16.90;84.50;;;;;;4960870;28;20157;-65
2023/10/02 08:16:17;;;;;;;46.42;28.42;;;17.00;84.30;;;;;;4977849;28;20062;-65
2023/10/02 08:19:01;;;;;;;49.17;28.40;;;17.00;84.20;;;;;;4977541;28;20090;-66
2023/10/02 08:21:35;;;;;;;53.22;28.70;;;17.00;84.10;;;;;;4976947;28;20046;-64
2023/10/02 08:24:05;;;;;;;53.42;31.05;;;17.00;84.10;;;;;;4976657;28;20469;-67
2023/10/02 08:26:43;;;;;;;49.33;28.52;;;17.10;84.00;;;;;;4977776;28;20077;-66
2023/10/02 08:29:14;;;;;;;50.53;29.17;;;17.20;83.90;;;;;;4976892;28;20409;-66
2023/10/02 08:31:48;;;;;;;52.05;29.48;;;17.20;83.80;;;;;;4977530;28;20057;-68
2023/10/02 08:34:19;;;;;;;55.83;30.50;;;17.30;83.90;;;;;;4977759;28;20528;-67
2023/10/02 08:37:04;;;;;;;56.72;29.67;;;17.40;83.80;;;;;;4978330;28;20690;-65
2023/10/02 08:39:38;;;;;;;50.10;29.25;;;17.40;83.70;;;;;;4977394;28;20521;-67
2023/10/02 08:42:09;;;;;;;52.05;31.05;;;17.50;83.60;;;;;;4977832;28;20127;-66
2023/10/02 08:44:40;;;;;;;41.58;22.63;;;17.50;83.80;;;;;;4976905;28;20120;-67
2023/10/02 08:47:06;;;;;;;;;;;17.70;83.70;;;;;;4977472;28;20082;-67
2023/10/02 08:49:34;;;;;;;57.15;31.33;;;17.70;83.30;;;;;;4978911;28;19929;-68
2023/10/02 08:52:03;;;;;;;60.45;32.03;;;17.80;83.40;;;;;;4977725;28;20054;-67
2023/10/02 08:54:31;;;;;;;57.88;30.45;;;17.80;83.40;;;;;;4977060;28;20469;-66
2023/10/02 08:57:08;;;;;;;61.38;30.58;;;17.80;83.40;;;;;;4977204;28;20128;-68
2023/10/02 08:59:41;;;;;;;57.63;30.85;;;17.80;83.50;;;;;;4976886;28;20470;-67
2023/10/02 09:02:16;;;;;;;55.90;29.50;;;17.80;83.60;;;;;;4959528;28;20061;-64
2023/10/02 09:04:55;;;;;;;63.53;32.47;;;17.80;83.60;;;;;;4978084;28;20124;-67
2023/10/02 09:10:24;;;;;;;58.72;30.70;;;18.00;83.50;;;;;;4977883;28;20069;-66
2023/10/02 09:13:24;;;;;;;64.35;32.05;;;18.00;83.50;;;;;;4976975;28;20096;-68
2023/10/02 09:15:54;;;;;;;62.83;30.48;;;18.00;83.20;;;;;;4978113;28;20057;-66
2023/10/02 09:21:22;;;;;;;57.45;31.33;;;18.10;83.20;;;;;;4977620;28;20112;-67
2023/10/02 09:23:51;;;;;;;64.32;31.17;;;18.10;83.20;;;;;;4976261;28;20144;-67
2023/10/02 09:26:17;;;;;;;57.25;30.05;;;18.10;83.20;;;;;;4976022;28;20058;-66
2023/10/02 09:28:58;;;;;;;55.42;30.13;;;18.10;83.20;;;;;;4976472;28;20050;-68
2023/10/02 09:31:28;;;;;;;58.92;31.70;;;18.10;83.20;;;;;;4977037;28;20053;-66
2023/10/02 09:33:55;;;;;;;57.03;30.55;;;18.10;83.20;;;;;;4975578;28;20749;-66
2023/10/02 09:36:35;;;;;;;59.10;31.13;;;18.10;83.20;;;;;;4974631;28;20047;-68
2023/10/02 09:39:31;;;;;;;57.70;31.38;;;18.20;83.30;;;;;;4973391;28;20054;-63
2023/10/02 09:42:10;;;;;;;60.35;31.33;;;18.30;83.20;;;;;;4974883;28;20197;-68
2023/10/02 09:44:40;;;;;;;58.92;31.35;;;18.20;83.00;;;;;;4975640;28;20106;-67
2023/10/02 09:47:08;;;;;;;56.00;30.58;;;18.30;83.10;;;;;;4957546;28;20054;-66
2023/10/02 09:49:42;;;;;;;53.35;29.23;;;18.30;83.20;;;;;;4977571;28;20129;-63
2023/10/02 09:52:16;;;;;;;58.17;30.05;;;18.50;83.20;;;;;;4977436;28;20145;-64
2023/10/02 09:55:14;;;;;;;56.33;29.42;;;18.50;83.00;;;;;;4977013;28;20557;-66
2023/10/02 09:57:50;;;;;;;58.83;29.65;;;18.60;82.80;;;;;;4977293;28;20054;-68
2023/10/02 10:00:37;;;;;;;51.08;29.15;;;18.60;82.90;;;;;;4976637;28;20046;-68
2023/10/02 10:03:22;;;;;;;52.15;29.77;;;18.60;83.00;;;;;;4976559;28;20046;-67
2023/10/02 10:06:06;;;;;;;51.17;29.38;;;18.70;83.00;;;;;;4974868;28;20119;-66
2023/10/02 10:11:44;;;;;;;50.03;28.40;;;18.80;82.90;;;;;;4955353;28;20505;-67
2023/10/02 10:14:37;;;;;;;48.90;27.60;;;18.90;82.80;;;;;;4979630;28;20513;-67
2023/10/02 10:17:16;;;;;;;51.90;27.20;;;19.00;82.50;;;;;;4979333;28;20583;-67
2023/10/02 10:20:08;;;;;;;44.53;25.80;;;19.10;82.30;;;;;;4980116;28;20093;-66
2023/10/02 10:22:39;;;;;;;48.08;27.70;;;19.10;82.00;;;;;;4978742;28;20113;-68
2023/10/02 10:27:55;;;;;;;48.28;27.23;;;19.20;82.00;;;;;;4979353;28;20100;-67
2023/10/02 10:30:39;;;;;;;49.92;27.83;;;19.30;82.30;;;;;;4978088;28;20101;-65
2023/10/02 10:35:38;;;;;;;47.65;26.15;;;19.50;81.90;;;;;;4979490;28;20094;-67
2023/10/02 10:38:25;;;;;;;49.38;26.35;;;19.50;81.40;;;;;;4979699;28;20062;-67
2023/10/02 10:41:01;;;;;;;42.35;23.65;;;19.60;81.00;;;;;;4961770;28;20054;-68
2023/10/02 10:46:32;;;;;;;41.28;24.05;;;19.70;81.00;;;;;;4980162;28;20129;-67
2023/10/02 10:49:08;;;;;;;42.50;25.63;;;19.90;81.10;;;;;;4978238;28;20077;-67
2023/10/02 10:51:38;;;;;;;47.35;24.73;;;19.90;80.90;;;;;;4979499;28;20050;-67
2023/10/02 10:54:25;;;;;;;47.53;25.20;;;19.90;80.70;;;;;;4978060;28;20580;-67
2023/10/02 10:57:19;;;;;;;47.63;25.60;;;19.90;81.10;;;;;;4976747;28;20078;-67
2023/10/02 10:59:45;;;;;;;46.67;25.30;;;19.90;81.00;;;;;;4958481;28;20050;-69
2023/10/02 11:02:17;;;;;;;45.08;25.00;;;19.90;80.90;;;;;;4978267;28;20590;-67
2023/10/02 11:04:47;;;;;;;46.58;25.38;;;19.80;80.90;;;;;;4977525;28;20746;-66
2023/10/02 11:07:19;;;;;;;46.92;26.65;;;19.80;81.20;;;;;;4977289;28;20050;-67
2023/10/02 11:10:18;;;;;;;45.85;24.85;;;19.80;81.20;;;;;;4977178;28;20054;-67
2023/10/02 11:12:59;;;;;;;43.78;25.05;;;19.70;80.90;;;;;;4976936;28;20185;-67
2023/10/02 11:15:46;;;;;;;42.92;25.55;;;19.70;81.20;;;;;;4977350;28;20053;-67
2023/10/02 11:18:19;;;;;;;47.38;25.65;;;19.70;81.20;;;;;;4978328;28;20054;-68
2023/10/02 11:20:54;;;;;;;47.20;23.92;;;19.80;81.10;;;;;;4976300;28;20386;-65
2023/10/02 11:23:40;;;;;;;39.58;24.25;;;19.80;81.00;;;;;;4978271;28;20471;-68
2023/10/02 11:26:21;;;;;;;41.63;24.70;;;19.90;80.50;;;;;;4979772;28;20109;-66
2023/10/02 11:28:50;;;;;;;41.92;25.10;;;19.80;80.50;;;;;;4960845;28;20532;-64
2023/10/02 11:31:32;;;;;;;40.38;23.83;;;19.80;80.60;;;;;;4978937;28;20336;-66
2023/10/02 11:34:06;;;;;;;42.55;25.10;;;19.80;80.30;;;;;;4978379;28;20043;-68
2023/10/02 11:36:34;;;;;;;44.28;24.95;;;19.90;80.50;;;;;;4979391;28;20101;-67
2023/10/02 11:39:08;;;;;;;43.92;23.67;;;19.90;80.50;;;;;;4977635;28;20073;-67
2023/10/02 11:41:34;;;;;;;48.22;25.13;;;19.90;80.70;;;;;;4976869;28;20070;-65
2023/10/02 11:44:00;;;;;;;40.55;23.58;;;20.00;80.60;;;;;;4977990;28;20124;-67
2023/10/02 11:46:25;;;;;;;39.50;22.20;;;20.00;80.60;;;;;;4978916;28;20054;-65
2023/10/02 11:48:54;;;;;;;39.83;22.13;;;20.00;80.40;;;;;;4961025;28;20508;-64
2023/10/02 11:51:20;;;;;;;32.88;20.08;;;20.10;80.60;;;;;;4960604;28;20161;-65
2023/10/02 11:53:45;;;;;;;38.53;22.02;;;20.20;80.40;;;;;;4978685;28;20057;-67
2023/10/02 11:56:11;;;;;;;38.65;21.67;;;20.30;80.20;;;;;;4977490;28;20038;-64
2023/10/02 11:58:37;;;;;;;35.15;19.92;;;20.30;80.20;;;;;;4975638;28;20072;-66
2023/10/02 12:01:04;;;;;;;33.53;19.98;;;20.30;80.00;;;;;;4977368;28;20058;-67
2023/10/02 12:03:36;;;;;;;32.55;19.20;;;20.30;79.50;;;;;;4979562;28;20065;-67
2023/10/02 12:06:02;;;;;;;36.75;20.75;;;20.40;79.60;;;;;;4977823;28;20053;-64
2023/10/02 12:08:28;;;;;;;34.67;20.02;;;20.40;79.50;;;;;;4978979;28;20054;-67
2023/10/02 12:10:55;;;;;;;37.92;20.65;;;20.40;79.50;;;;;;4976908;28;20054;-67
2023/10/02 12:13:21;;;;;;;37.38;19.98;;;20.50;79.40;;;;;;4979625;28;21577;-67
2023/10/02 12:15:47;;;;;;;32.47;19.25;;;20.50;79.40;;;;;;4980528;28;20164;-64
2023/10/02 12:18:12;;;;;;;31.23;19.63;;;20.50;79.40;;;;;;4980794;28;20097;-67
2023/10/02 12:20:39;;;;;;;35.60;20.55;;;20.50;79.40;;;;;;4979913;28;20058;-68
2023/10/02 12:23:05;;;;;;;32.90;19.58;;;20.50;79.30;;;;;;4979160;28;20058;-67
2023/10/02 12:25:31;;;;;;;31.90;18.42;;;20.50;79.30;;;;;;4980168;28;20093;-66
2023/10/02 12:27:56;;;;;;;33.40;19.33;;;20.50;79.40;;;;;;4979002;28;20065;-64
2023/10/02 12:30:22;;;;;;;31.80;18.70;;;20.50;79.20;;;;;;4979896;28;20055;-67
2023/10/02 12:32:49;;;;;;;32.47;18.27;;;20.50;79.10;;;;;;4977835;28;20046;-64
2023/10/02 12:35:16;;;;;;;30.88;18.50;;;20.60;79.20;;;;;;4979939;28;20046;-66
2023/10/02 12:37:42;;;;;;;36.08;19.63;;;20.50;79.10;;;;;;4984426;28;20086;-67
2023/10/02 12:40:18;;;;;;;34.30;18.63;;;20.60;79.00;;;;;;4989093;28;20171;-68
2023/10/02 12:42:44;;;;;;;37.38;19.05;;;20.60;78.90;;;;;;4988648;28;20058;-65
2023/10/02 12:45:10;;;;;;;31.65;17.95;;;20.60;79.10;;;;;;4988225;28;20046;-67
2023/10/02 12:47:40;;;;;;;28.77;17.85;;;20.60;79.00;;;;;;4988808;28;20049;-67
2023/10/02 12:50:10;;;;;;;28.77;17.92;;;20.60;78.60;;;;;;4988938;28;20801;-68
2023/10/02 12:52:37;;;;;;;33.92;19.15;;;20.60;78.90;;;;;;4988197;28;20058;-66
2023/10/02 12:55:02;;;;;;;30.40;19.00;;;20.70;78.90;;;;;;4988074;28;20543;-68
2023/10/02 12:57:28;;;;;;;28.55;17.75;;;20.70;78.70;;;;;;4987968;28;20038;-66
2023/10/02 12:59:54;;;;;;;32.47;19.83;;;20.70;78.60;;;;;;4988143;28;20200;-66
2023/10/02 13:02:19;;;;;;;31.40;18.83;;;20.70;78.70;;;;;;4974733;28;20426;-66
2023/10/02 13:04:45;;;;;;;30.85;18.88;;;20.70;79.00;;;;;;4992976;28;20153;-66
2023/10/02 13:07:11;;;;;;;36.85;22.00;;;20.70;79.00;;;;;;4988252;28;20192;-67
2023/10/02 13:09:36;;;;;;;34.70;20.60;;;20.70;78.90;;;;;;4981092;28;20050;-67
2023/10/02 13:12:03;;;;;;;41.92;23.73;;;20.70;78.90;;;;;;4978027;28;20157;-67
2023/10/02 13:14:28;;;;;;;39.03;22.33;;;20.60;78.90;;;;;;4978902;28;20070;-67
2023/10/02 13:16:54;;;;;;;36.65;23.88;;;20.60;78.90;;;;;;4977844;28;20129;-68
2023/10/02 13:19:20;;;;;;;38.88;22.73;;;20.60;79.10;;;;;;4978522;28;20050;-67
2023/10/02 13:21:51;;;;;;;34.28;21.85;;;20.60;79.10;;;;;;4961076;28;20745;-67
2023/10/02 13:24:17;;;;;;;30.73;20.48;;;20.60;79.00;;;;;;4960736;28;20165;-64
2023/10/02 13:26:44;;;;;;;32.00;19.90;;;20.60;79.00;;;;;;4979746;28;21474;-67
2023/10/02 13:29:10;;;;;;;27.20;18.10;;;20.60;78.90;;;;;;4978333;28;20058;-67
2023/10/02 13:31:36;;;;;;;40.72;19.25;;;20.60;78.40;;;;;;4979337;28;20054;-67
2023/10/02 13:34:05;;;;;;;32.17;17.92;;;20.60;78.50;;;;;;4977784;28;20061;-66
2023/10/02 13:36:31;;;;;;;31.00;18.30;;;20.60;78.50;;;;;;4977461;28;20500;-66
2023/10/02 13:38:57;;;;;;;31.35;18.77;;;20.60;78.30;;;;;;4978727;28;20505;-65
2023/10/02 13:41:25;;;;;;;32.22;17.90;;;20.60;78.00;;;;;;4978171;28;20062;-67